Time;durP1;ratioP1;P1;durP2;ratioP2;P2;SDS_P1;SDS_P2;PMS_P1;PMS_P2;Temp;Humidity;BMP_temperature;BMP_pressure;BME280_temperature;BME280_humidity;BME280_pressure;Samples;Min_cycle;Max_cycle;Signal;HPM_P1;HPM_P2
2022/06/06 09:46:57;;;;;;;5.30;2.40;;;22.00;81.90;;;20.38;61.51;97492.34;5087220;28;20374;-77
2022/06/06 09:50:34;;;;;;;4.80;2.37;;;21.20;85.00;;;20.58;82.79;97492.91;5063965;28;20996;-76
2022/06/06 09:53:38;;;;;;;6.05;2.00;;;21.20;99.90;;;20.46;70.68;97483.53;5060496;28;20490;-75
2022/06/06 10:00:17;;;;;;;2.95;1.70;;;21.40;98.80;;;20.96;76.67;97491.22;5063297;28;20925;-75
2022/06/06 10:03:24;;;;;;;4.53;1.90;;;21.60;99.90;;;20.96;68.43;97491.22;5065435;28;20397;-78
2022/06/06 10:06:33;;;;;;;4.68;1.80;;;21.70;99.90;;;21.21;76.27;97481.59;5061247;28;20503;-78
2022/06/06 10:09:48;;;;;;;4.50;2.25;;;21.70;99.90;;;21.33;76.50;97484.44;5055651;28;20400;-78
2022/06/06 10:12:46;;;;;;;4.10;2.30;;;21.90;99.90;;;21.46;68.03;97470.00;5032595;28;20405;-77
2022/06/06 10:15:36;;;;;;;3.17;1.88;;;22.10;99.90;;;21.65;67.92;97471.59;5055266;28;20760;-83
2022/06/06 10:18:31;;;;;;;1.87;1.40;;;22.30;97.50;;;21.65;62.41;97472.38;5058295;28;20394;-79
2022/06/06 10:21:25;;;;;;;6.53;1.90;;;22.30;96.60;;;21.40;56.21;97459.72;5059374;28;20454;-78
2022/06/06 10:24:19;;;;;;;4.10;1.70;;;22.10;80.20;;;21.32;66.00;97471.31;5057166;28;20399;-77
2022/06/06 10:27:04;;;;;;;4.25;1.80;;;22.00;96.50;;;21.17;64.94;97469.88;5060839;28;20433;-79
2022/06/06 10:30:10;;;;;;;2.95;1.80;;;21.80;94.00;;;21.30;61.47;97468.13;5058362;28;20402;-76
2022/06/06 10:33:24;;;;;;;3.65;1.70;;;21.90;91.40;;;21.59;58.13;97468.25;5057865;28;20393;-78
2022/06/06 10:36:18;;;;;;;3.65;1.60;;;22.10;84.10;;;22.61;53.85;97452.81;5049876;28;20511;-79
2022/06/06 10:39:17;;;;;;;2.30;1.50;;;23.20;77.60;;;23.52;52.41;97456.59;5052482;28;20469;-79
2022/06/06 10:42:10;;;;;;;2.65;1.80;;;24.20;74.60;;;23.59;48.73;97453.34;5069951;28;20481;-79
2022/06/06 10:45:13;;;;;;;2.25;1.45;;;24.20;66.30;;;23.39;48.46;97454.91;5072990;28;20929;-82
2022/06/06 10:48:14;;;;;;;3.42;1.70;;;24.00;64.50;;;22.86;47.96;97444.88;5081182;28;20404;-79
2022/06/06 10:51:37;;;;;;;4.83;1.50;;;23.60;63.50;;;22.31;48.65;97449.31;5080319;28;20395;-79
2022/06/06 10:54:54;;;;;;;4.30;1.52;;;23.10;63.70;;;22.05;48.25;97451.34;5053041;28;20914;-79
2022/06/06 10:58:07;;;;;;;2.80;1.63;;;22.70;65.00;;;21.81;50.70;97442.97;5061639;28;20461;-80
2022/06/06 11:01:29;;;;;;;2.50;1.30;;;22.50;66.70;;;22.65;49.95;97434.03;5070177;28;20594;-82
2022/06/06 11:04:58;;;;;;;5.37;1.77;;;23.00;66.80;;;23.28;45.83;97440.25;4982701;28;20497;-84
2022/06/06 11:08:04;;;;;;;3.45;1.50;;;23.80;60.40;;;23.50;44.89;97439.91;5059934;28;20415;-82
2022/06/06 11:11:13;;;;;;;2.17;1.38;;;24.10;59.50;;;23.34;43.30;97431.59;5039602;28;20501;-83
2022/06/06 11:13:51;;;;;;;2.40;1.40;;;23.90;58.40;;;23.11;46.23;97433.88;5061791;28;20400;-83
2022/06/06 11:16:59;;;;;;;2.85;1.50;;;23.70;60.60;;;22.98;48.00;97429.53;5082040;22;20437;-79
2022/06/06 11:20:28;;;;;;;3.03;1.80;;;23.60;62.30;;;22.80;48.09;97427.28;5047810;28;20759;-76
2022/06/06 11:23:02;;;;;;;2.33;1.45;;;23.40;62.40;;;22.90;49.20;97426.91;5015466;28;20412;-81
2022/06/06 11:25:39;;;;;;;2.40;1.40;;;23.40;64.80;;;23.14;49.62;97424.34;5047652;28;20421;-81
2022/06/06 11:28:48;;;;;;;2.92;2.00;;;23.60;65.20;;;23.42;47.22;97427.25;5048684;28;20422;-82
2022/06/06 11:31:49;;;;;;;5.00;1.80;;;24.00;64.30;;;24.42;43.77;97420.56;5040589;28;20497;-78
2022/06/06 11:35:16;;;;;;;1.88;1.30;;;24.80;59.40;;;26.28;42.68;97412.53;5052502;28;20485;-79
2022/06/06 11:38:33;;;;;;;2.72;1.20;;;26.60;58.00;;;27.30;39.67;97411.22;5052306;28;20394;-78
2022/06/06 11:41:21;;;;;;;2.50;1.45;;;27.80;53.30;;;27.01;36.87;97411.81;5052534;28;20404;-78
2022/06/06 11:44:15;;;;;;;1.60;1.40;;;27.60;50.30;;;26.40;39.35;97411.59;5051889;28;20435;-78
2022/06/06 11:47:36;;;;;;;2.33;1.40;;;27.00;52.40;;;25.59;40.59;97413.88;5052158;28;20479;-78
2022/06/06 11:50:47;;;;;;;2.08;1.40;;;26.30;53.30;;;24.89;42.02;97404.53;5044390;28;20492;-79
2022/06/06 11:54:18;;;;;;;3.78;1.48;;;25.50;54.30;;;24.35;42.96;97410.31;5036407;28;21065;-79
2022/06/06 11:57:25;;;;;;;1.95;1.30;;;25.00;56.20;;;23.79;43.45;97407.31;5051438;28;20918;-78
2022/06/06 12:00:18;;;;;;;5.35;1.70;;;24.60;57.20;;;23.48;44.26;97399.72;5050191;28;20484;-79
2022/06/06 12:03:33;;;;;;;2.20;1.48;;;24.10;57.50;;;23.53;45.31;97404.13;5045843;28;20440;-80
2022/06/06 12:06:46;;;;;;;1.88;1.33;;;24.00;58.70;;;24.26;43.78;97396.88;5030844;28;20772;-79
2022/06/06 12:09:39;;;;;;;4.93;1.98;;;24.60;57.30;;;24.38;43.48;97392.56;5044057;28;20786;-81
2022/06/06 12:12:51;;;;;;;2.47;1.25;;;24.90;56.70;;;24.13;42.20;97389.09;5047000;28;20888;-80
2022/06/06 12:16:08;;;;;;;2.80;1.57;;;24.80;55.30;;;23.81;42.69;97386.16;5044518;28;20490;-80
2022/06/06 12:19:09;;;;;;;2.70;1.63;;;24.40;55.80;;;23.53;43.91;97390.63;5045485;28;20401;-81
2022/06/06 12:22:01;;;;;;;2.35;1.40;;;24.10;57.40;;;23.28;45.50;97388.94;5044690;28;20468;-81
2022/06/06 12:25:32;;;;;;;2.50;1.55;;;23.90;59.00;;;23.00;45.03;97386.03;5046769;28;20437;-81
2022/06/06 12:28:31;;;;;;;4.10;1.58;;;23.60;58.80;;;23.16;47.17;97382.34;5022410;28;20472;-79
2022/06/06 12:31:29;;;;;;;1.65;1.30;;;23.70;61.30;;;23.43;47.66;97380.97;5045397;28;20406;-80
2022/06/06 12:34:02;;;;;;;1.63;1.30;;;24.00;61.90;;;24.20;45.48;97373.91;5035049;28;20452;-80
2022/06/06 12:36:37;;;;;;;3.53;1.15;;;24.50;59.20;;;25.51;42.74;97366.00;5039098;28;20403;-80
2022/06/06 12:39:15;;;;;;;2.15;1.40;;;25.80;56.70;;;27.46;40.42;97359.47;5049672;28;20787;-78
2022/06/06 12:41:58;;;;;;;2.43;1.20;;;27.50;55.10;;;29.41;35.36;97356.84;5021102;28;20802;-78
2022/06/06 12:44:57;;;;;;;2.58;1.30;;;29.60;49.60;;;31.41;31.70;97367.88;5050905;28;20913;-77
2022/06/06 12:47:56;;;;;;;1.90;1.00;;;31.50;46.60;;;33.04;31.14;97360.28;5046223;28;20512;-78
2022/06/06 12:50:41;;;;;;;1.55;1.05;;;33.10;45.10;;;34.41;27.22;97356.19;5031468;28;20403;-78
2022/06/06 12:54:10;;;;;;;3.20;1.13;;;34.40;40.00;;;35.48;25.66;97345.47;5044219;28;20490;-78
2022/06/06 12:56:53;;;;;;;1.98;1.00;;;35.40;38.40;;;35.55;24.24;97364.63;5052308;28;20413;-78
2022/06/06 12:59:47;;;;;;;2.20;0.75;;;35.60;35.00;;;34.40;23.66;97343.66;5041156;28;20432;-77
2022/06/06 13:03:01;;;;;;;2.63;1.00;;;34.70;35.00;;;32.75;26.81;97345.13;5048605;28;20406;-77
2022/06/06 13:05:41;;;;;;;2.70;1.17;;;33.40;37.50;;;31.26;28.46;97336.97;5030731;28;20410;-76
2022/06/06 13:08:40;;;;;;;1.20;0.90;;;31.80;40.00;;;29.87;29.85;97346.34;5047767;28;20908;-76
2022/06/06 13:11:36;;;;;;;3.45;1.40;;;30.50;42.30;;;28.48;31.50;97333.16;5048734;28;20467;-75
2022/06/06 13:14:36;;;;;;;2.15;1.30;;;29.20;42.80;;;27.41;34.92;97338.03;5049691;28;20408;-76
2022/06/06 13:17:16;;;;;;;4.20;1.50;;;28.10;46.50;;;26.71;36.70;97340.13;5050319;28;20405;-77
2022/06/06 13:20:10;;;;;;;5.88;1.48;;;27.40;48.70;;;26.12;39.46;97339.25;5049979;28;20425;-77
2022/06/06 13:23:21;;;;;;;2.95;1.63;;;26.90;51.60;;;25.65;41.62;97344.72;5032637;28;20882;-77
2022/06/06 13:26:03;;;;;;;3.97;1.73;;;26.40;53.60;;;25.17;39.14;97350.41;5050183;28;20878;-75
2022/06/06 13:28:32;;;;;;;3.10;1.40;;;25.90;50.90;;;24.85;40.41;97342.16;5050188;28;20408;-75
2022/06/06 13:31:19;;;;;;;6.07;1.63;;;25.50;52.60;;;24.58;43.41;97343.69;5050345;28;20401;-77
2022/06/06 13:34:08;;;;;;;2.63;1.40;;;25.20;55.30;;;24.39;43.78;97346.25;5050434;28;20390;-76
2022/06/06 13:36:51;;;;;;;2.00;1.40;;;25.10;56.50;;;24.09;42.57;97343.00;5050229;28;20398;-76
2022/06/06 13:39:37;;;;;;;3.38;1.42;;;24.80;54.60;;;23.89;43.27;97352.81;5032039;28;20703;-76
2022/06/06 13:42:17;;;;;;;2.22;1.30;;;24.60;55.70;;;23.71;42.45;97356.06;5050312;28;20728;-76
2022/06/06 13:45:18;;;;;;;2.90;1.40;;;24.40;55.60;;;23.45;41.68;97356.34;5050155;28;20571;-76
2022/06/06 13:48:15;;;;;;;2.15;1.35;;;24.10;54.40;;;23.22;45.18;97352.44;5022080;28;20417;-76
2022/06/06 13:50:58;;;;;;;2.95;1.60;;;23.90;57.40;;;23.04;42.57;97349.91;5050121;28;20908;-76
2022/06/06 13:53:56;;;;;;;2.60;1.30;;;23.80;56.00;;;22.87;45.30;97338.47;5049943;28;20408;-76
2022/06/06 13:56:52;;;;;;;5.70;1.57;;;23.60;57.80;;;22.80;48.47;97338.22;5047849;28;20821;-76
2022/06/06 13:59:55;;;;;;;3.08;1.42;;;23.50;60.70;;;22.73;48.03;97344.13;5041592;28;20762;-74
2022/06/06 14:02:36;;;;;;;4.13;1.43;;;23.40;60.70;;;22.67;49.41;97343.56;5024400;28;20417;-78
2022/06/06 14:05:19;;;;;;;3.50;1.60;;;23.40;62.60;;;22.68;50.63;97337.03;5037950;28;20530;-78
2022/06/06 14:08:10;;;;;;;3.00;1.30;;;23.40;64.40;;;22.69;48.70;97340.53;5037085;28;20406;-78
2022/06/06 14:11:05;;;;;;;2.70;1.50;;;23.40;62.80;;;22.67;47.35;97342.75;5050333;28;20401;-77
2022/06/06 14:13:47;;;;;;;3.25;1.80;;;23.30;60.40;;;22.67;48.78;97342.75;5034403;28;20439;-78
2022/06/06 14:16:29;;;;;;;4.50;1.40;;;23.30;63.20;;;22.68;50.54;97337.03;5045414;28;20504;-79
2022/06/06 14:19:05;;;;;;;3.42;1.63;;;23.40;64.70;;;22.76;52.50;97343.50;5049138;28;20981;-78
2022/06/06 14:21:37;;;;;;;3.17;1.23;;;23.40;67.00;;;22.77;50.24;97337.00;5049815;28;20401;-78
2022/06/06 14:24:10;;;;;;;2.87;1.40;;;23.40;64.80;;;22.74;47.78;97333.03;5049734;28;20459;-78
2022/06/06 14:26:36;;;;;;;4.43;1.70;;;23.40;61.80;;;22.74;47.49;97338.44;5049147;28;20397;-75
2022/06/06 14:29:24;;;;;;;3.30;1.50;;;23.40;61.70;;;22.73;47.94;97336.03;5046156;28;20407;-80
2022/06/06 14:31:55;;;;;;;2.17;1.42;;;23.40;61.40;;;22.84;49.71;97331.06;5042122;28;20451;-78
2022/06/06 14:34:33;;;;;;;1.90;1.35;;;23.40;64.10;;;23.21;50.29;97338.16;5053291;28;20408;-76
2022/06/06 14:37:15;;;;;;;3.10;1.50;;;23.70;65.00;;;23.89;50.15;97333.88;5036942;28;20404;-76
2022/06/06 14:39:45;;;;;;;2.97;1.45;;;24.30;64.80;;;24.62;47.41;97341.13;5052176;28;20854;-78
2022/06/06 14:42:12;;;;;;;3.43;1.47;;;25.00;61.40;;;25.21;45.63;97340.44;5053313;28;20418;-76
2022/06/06 14:44:44;;;;;;;1.70;1.35;;;25.60;59.10;;;26.13;45.87;97332.69;5053263;28;20406;-78
2022/06/06 14:47:15;;;;;;;1.65;1.23;;;26.30;60.40;;;27.20;43.86;97335.72;5046667;28;20397;-77
2022/06/06 14:50:45;;;;;;;3.90;1.50;;;27.30;58.40;;;28.48;40.96;97337.81;5052784;28;20397;-79
2022/06/06 14:52:35;;;;;;;3.10;1.60;;;28.40;55.80;;;30.53;36.29;97349.94;5053334;28;20771;-78
2022/06/06 14:55:03;;;;;;;2.08;1.23;;;30.30;51.20;;;31.24;32.32;97349.47;5048193;28;20417;-80
2022/06/06 14:57:32;;;;;;;2.50;1.20;;;31.10;46.10;;;31.59;30.76;97346.00;5052187;28;20555;-76
2022/06/06 14:59:59;;;;;;;3.27;1.17;;;31.40;44.40;;;32.22;29.98;97348.78;5052292;28;20397;-76
2022/06/06 15:02:28;;;;;;;1.60;1.05;;;32.00;43.30;;;32.55;30.25;97333.06;5034529;28;20408;-78
2022/06/06 15:05:14;;;;;;;1.15;1.00;;;32.30;43.60;;;32.33;29.19;97335.03;5052166;28;20397;-79
2022/06/06 15:07:51;;;;;;;3.28;1.40;;;32.20;42.30;;;32.22;29.96;97335.09;5049371;28;20810;-78
2022/06/06 15:10:28;;;;;;;2.20;1.10;;;32.10;42.70;;;32.53;29.37;97338.94;5049476;28;20397;-77
2022/06/06 15:12:55;;;;;;;3.28;1.13;;;32.20;42.60;;;33.15;29.22;97332.81;5052402;28;20406;-77
2022/06/06 15:15:23;;;;;;;2.30;1.20;;;32.70;42.60;;;33.41;27.18;97346.00;5052160;28;20877;-77
2022/06/06 15:17:50;;;;;;;1.98;1.00;;;33.00;39.80;;;33.79;27.55;97340.66;5052301;28;20429;-79
2022/06/06 15:20:23;;;;;;;2.50;1.00;;;33.20;40.60;;;34.21;28.49;97344.97;5049100;28;20406;-78
2022/06/06 15:22:52;;;;;;;1.52;0.95;;;33.80;41.70;;;33.57;28.89;97344.72;5052396;28;20855;-78
2022/06/06 15:25:22;;;;;;;1.52;1.00;;;33.60;41.30;;;32.35;28.70;97335.44;5052241;28;20400;-76
2022/06/06 15:28:14;;;;;;;1.58;1.08;;;32.70;40.60;;;31.24;31.05;97335.78;5034206;28;20752;-78
2022/06/06 15:30:56;;;;;;;3.10;1.40;;;31.60;43.60;;;30.17;33.78;97343.47;5047264;28;20486;-77
2022/06/06 15:33:38;;;;;;;2.53;1.15;;;30.60;45.70;;;29.26;34.84;97330.56;5050820;28;20397;-78
2022/06/06 15:36:16;;;;;;;4.15;1.40;;;29.70;47.20;;;28.63;34.95;97333.31;5048627;28;20486;-78
2022/06/06 15:39:08;;;;;;;2.97;1.50;;;29.10;47.70;;;28.11;35.32;97329.47;5049390;28;20404;-77
2022/06/06 15:41:48;;;;;;;2.17;1.30;;;28.60;48.20;;;27.93;37.64;97321.03;5051596;28;20437;-77
2022/06/06 15:44:38;;;;;;;4.50;1.20;;;28.20;50.10;;;28.27;38.00;97318.47;5048076;28;20410;-77
2022/06/06 15:47:16;;;;;;;1.98;1.30;;;28.40;51.00;;;28.55;38.06;97315.31;5050460;28;20735;-78
2022/06/06 15:50:17;;;;;;;2.38;1.40;;;28.70;51.30;;;29.09;38.04;97312.09;5031600;28;20416;-76
2022/06/06 15:52:57;;;;;;;2.22;1.25;;;29.20;51.60;;;29.14;36.79;97319.91;5049950;28;20405;-77
2022/06/06 15:55:36;;;;;;;2.77;1.33;;;29.40;49.70;;;28.80;36.41;97328.09;5049601;28;20419;-77
2022/06/06 15:58:28;;;;;;;3.30;1.52;;;29.20;49.90;;;28.22;37.63;97325.00;5049420;28;20394;-78
2022/06/06 16:01:03;;;;;;;6.27;1.90;;;28.60;49.90;;;27.49;35.55;97330.78;5048299;28;20739;-79
2022/06/06 16:03:58;;;;;;;1.97;1.60;;;28.00;48.30;;;26.88;39.35;97321.50;5032018;28;20757;-78
2022/06/06 16:06:30;;;;;;;2.63;1.80;;;27.50;51.30;;;26.26;38.60;97314.38;5049481;28;20944;-76
2022/06/06 16:09:11;;;;;;;3.30;1.97;;;26.90;51.00;;;25.83;41.34;97307.97;5051110;28;20480;-77
2022/06/06 16:11:54;;;;;;;4.53;1.70;;;26.50;53.40;;;25.46;41.05;97314.78;5050548;28;20404;-78
2022/06/06 16:14:50;;;;;;;3.22;1.70;;;26.10;53.40;;;25.22;42.40;97306.78;5033824;28;20402;-77
2022/06/06 16:17:22;;;;;;;4.82;1.80;;;25.80;54.70;;;25.02;42.30;97308.59;5049386;28;20421;-77
2022/06/06 16:19:55;;;;;;;2.53;1.43;;;25.60;55.00;;;24.94;44.86;97315.75;5047572;28;20517;-77
2022/06/06 16:22:29;;;;;;;4.03;1.92;;;25.50;57.30;;;24.91;45.91;97307.53;5050084;28;20787;-77
2022/06/06 16:25:06;;;;;;;4.15;1.77;;;25.40;58.00;;;24.80;42.87;97309.94;5051384;28;20397;-77
2022/06/06 16:27:39;;;;;;;2.33;1.50;;;25.30;55.50;;;24.82;44.52;97309.56;5036957;28;20445;-78
2022/06/06 16:30:16;;;;;;;2.13;1.50;;;25.30;57.30;;;24.83;45.05;97314.63;5031137;28;20541;-77
2022/06/06 16:32:45;;;;;;;3.13;1.70;;;25.30;57.50;;;24.86;44.81;97316.66;5031610;28;20411;-76
2022/06/06 16:35:35;;;;;;;2.80;1.90;;;25.40;57.60;;;24.80;43.71;97311.84;5048238;28;20413;-76
2022/06/06 16:38:08;;;;;;;2.78;1.73;;;25.30;56.30;;;24.73;42.50;97309.72;5049971;28;20412;-77
2022/06/06 16:47:56;;;;;;;3.00;1.33;;;25.20;56.50;;;24.65;44.09;97316.88;5051182;28;20401;-78
2022/06/06 16:50:57;;;;;;;2.33;1.50;;;25.20;57.30;;;24.56;44.90;97312.72;5050562;28;20419;-77
2022/06/06 16:54:04;;;;;;;3.40;1.90;;;25.10;57.30;;;24.39;45.27;97305.66;5045793;28;20492;-75
2022/06/06 16:56:43;;;;;;;3.80;1.58;;;25.00;57.70;;;24.14;43.82;97307.59;5048869;28;20437;-74
2022/06/06 16:59:31;;;;;;;2.97;1.65;;;24.70;56.60;;;23.80;43.80;97311.56;5047387;28;20389;-77
2022/06/06 17:02:18;;;;;;;3.30;1.45;;;24.40;56.30;;;23.64;45.47;97315.28;5050778;28;20405;-76
2022/06/06 17:04:49;;;;;;;3.70;1.63;;;24.20;58.30;;;23.53;45.62;97321.13;5050636;28;20809;-75
2022/06/06 17:10:14;;;;;;;3.20;1.70;;;24.00;57.20;;;23.30;45.69;97319.97;5049244;28;20396;-77
2022/06/06 17:12:51;;;;;;;2.13;1.17;;;23.90;58.30;;;23.31;48.22;97320.72;5050572;28;20393;-76
2022/06/06 17:15:29;;;;;;;4.90;1.70;;;23.90;61.30;;;23.12;44.11;97321.25;5032923;28;20427;-75
2022/06/06 17:18:29;;;;;;;2.08;1.25;;;23.70;57.30;;;22.99;45.78;97317.75;5063637;22;20429;-86
2022/06/06 17:21:03;;;;;;;2.08;1.27;;;23.60;58.80;;;22.89;47.09;97320.84;5030267;28;20757;-84
2022/06/06 17:23:33;;;;;;;2.17;1.15;;;23.50;59.90;;;22.81;48.39;97313.63;5048481;28;20409;-85
2022/06/06 17:26:04;;;;;;;3.85;1.40;;;23.40;61.40;;;22.65;46.71;97305.31;5047709;28;20389;-80
2022/06/06 17:29:00;;;;;;;2.80;1.30;;;23.30;59.80;;;22.50;47.15;97305.13;5050046;28;20898;-85
2022/06/06 17:31:41;;;;;;;2.15;1.40;;;23.20;59.90;;;22.40;48.51;97317.88;5050521;28;20400;-85
2022/06/06 17:34:17;;;;;;;3.35;1.63;;;23.10;62.50;;;22.29;49.38;97308.63;5060876;28;20507;-86
2022/06/06 17:37:03;;;;;;;4.05;1.50;;;22.90;63.20;;;22.24;50.61;97305.34;5070106;28;20426;-87
2022/06/06 17:39:42;;;;;;;4.47;1.50;;;22.90;63.90;;;22.19;50.58;97309.00;5056583;28;21010;-87
2022/06/06 17:42:30;;;;;;;2.25;1.50;;;22.90;64.10;;;22.12;52.49;97311.44;5047582;28;20397;-87
2022/06/06 17:45:25;;;;;;;3.28;1.65;;;22.80;66.00;;;22.07;50.13;97314.31;5048569;28;20687;-85
2022/06/06 17:48:21;;;;;;;2.63;1.40;;;22.70;63.70;;;21.97;49.11;97307.41;5048019;28;20405;-86
2022/06/06 17:50:59;;;;;;;2.08;1.45;;;22.60;63.10;;;21.80;51.55;97315.53;5043568;28;20463;-88
2022/06/06 17:53:57;;;;;;;2.00;1.50;;;22.50;65.10;;;21.71;49.77;97309.44;5045909;28;20895;-86
2022/06/06 17:56:57;;;;;;;1.88;1.20;;;22.40;63.30;;;21.59;48.75;97309.31;5045867;28;20449;-83
2022/06/06 17:59:46;;;;;;;2.47;1.60;;;22.30;63.00;;;21.46;50.73;97308.41;5042796;28;20941;-87
2022/06/06 18:02:52;;;;;;;2.47;1.27;;;22.20;64.40;;;21.35;51.32;97309.88;5048503;28;20763;-87
2022/06/06 18:06:00;;;;;;;2.67;1.40;;;22.10;65.10;;;21.30;51.21;97309.25;5049049;28;20744;-86
2022/06/06 18:09:07;;;;;;;2.83;1.42;;;22.00;65.20;;;21.22;50.74;97316.25;5053519;28;20838;-83
2022/06/06 18:11:53;;;;;;;4.25;1.45;;;21.90;64.90;;;21.14;52.11;97311.66;5035909;28;20795;-84
2022/06/06 18:14:30;;;;;;;2.65;1.45;;;21.90;66.10;;;21.12;50.90;97306.59;5053089;28;20393;-83
2022/06/06 18:17:07;;;;;;;1.98;1.27;;;21.80;65.50;;;21.02;52.52;97314.22;5053094;28;20496;-83
2022/06/06 18:19:37;;;;;;;3.47;1.48;;;21.70;67.20;;;20.92;51.47;97312.66;5052994;28;20412;-85
2022/06/06 18:22:06;;;;;;;1.90;1.30;;;21.60;65.80;;;20.84;52.64;97308.88;5059046;28;20417;-83
2022/06/06 18:24:38;;;;;;;4.53;1.30;;;21.60;67.70;;;20.80;53.25;97307.94;5056748;28;20883;-83
2022/06/06 18:27:13;;;;;;;2.28;1.38;;;21.50;67.70;;;20.78;54.26;97315.53;5054842;28;20437;-82
2022/06/06 18:29:45;;;;;;;1.60;1.23;;;21.50;69.30;;;20.75;55.71;97318.84;5052618;28;20390;-80
2022/06/06 18:32:18;;;;;;;2.47;1.30;;;21.50;70.70;;;20.79;55.48;97316.31;5056561;28;20398;-81
2022/06/06 18:34:57;;;;;;;2.83;1.30;;;21.50;71.20;;;20.75;55.85;97312.69;5050413;28;21054;-81
2022/06/06 18:37:31;;;;;;;2.63;1.20;;;21.50;71.50;;;20.73;55.25;97312.22;5055152;28;20397;-80
2022/06/06 18:40:01;;;;;;;3.45;1.40;;;21.40;70.80;;;20.70;53.57;97302.06;5055802;28;20408;-80
2022/06/06 18:42:30;;;;;;;1.73;1.33;;;21.40;68.70;;;20.67;53.51;97305.41;5050659;28;20405;-78
2022/06/06 18:44:59;;;;;;;2.55;1.27;;;21.40;68.80;;;20.63;55.03;97307.16;5050753;28;20756;-77
2022/06/06 18:47:44;;;;;;;1.90;1.30;;;21.30;70.30;;;20.59;54.13;97315.06;5066184;28;20881;-80
2022/06/06 18:50:24;;;;;;;3.00;1.30;;;21.30;69.30;;;20.53;54.58;97312.84;5052285;28;20429;-81
2022/06/06 18:52:57;;;;;;;1.52;1.05;;;21.20;69.90;;;20.46;54.70;97307.94;5052977;28;20503;-79
2022/06/06 18:55:27;;;;;;;1.90;1.20;;;21.20;70.10;;;20.43;52.50;97309.38;5052917;28;20417;-80
2022/06/06 18:57:59;;;;;;;1.70;1.20;;;21.20;68.50;;;20.35;54.09;97307.47;5050574;28;20416;-82
2022/06/06 19:00:29;;;;;;;1.93;1.10;;;21.10;69.50;;;20.31;53.04;97308.38;5052580;28;20535;-81
2022/06/06 19:02:58;;;;;;;1.45;1.17;;;21.00;69.20;;;20.24;55.42;97306.16;5050246;28;20980;-79
2022/06/06 19:05:27;;;;;;;3.00;1.30;;;21.00;71.30;;;20.22;55.41;97316.47;5052480;28;20393;-79
2022/06/06 19:08:02;;;;;;;2.78;1.10;;;21.00;71.50;;;20.17;55.57;97311.22;5049935;28;20484;-83
2022/06/06 19:10:33;;;;;;;2.45;1.20;;;20.90;71.30;;;20.13;54.88;97314.84;5052349;28;20427;-81
2022/06/06 19:13:03;;;;;;;2.95;1.50;;;20.80;71.00;;;20.08;53.77;97315.78;5050417;28;20830;-81
2022/06/06 19:15:34;;;;;;;1.50;1.08;;;20.80;70.10;;;19.99;54.72;97321.16;5052072;28;20410;-80
2022/06/06 19:18:16;;;;;;;3.53;1.40;;;20.70;71.20;;;19.92;54.96;97323.50;5051342;28;20759;-80
2022/06/06 19:20:46;;;;;;;3.25;1.30;;;20.70;71.60;;;19.88;57.61;97324.44;5050742;28;20492;-80
2022/06/06 19:23:19;;;;;;;2.60;1.35;;;20.60;74.20;;;19.84;58.64;97326.97;5051042;28;20413;-82
2022/06/06 19:25:52;;;;;;;2.17;1.30;;;20.60;75.80;;;19.82;56.04;97323.78;5060398;28;20487;-81
2022/06/06 19:28:24;;;;;;;2.40;1.20;;;20.60;73.20;;;19.78;56.36;97328.19;5049241;28;20488;-82
2022/06/06 19:30:51;;;;;;;2.05;1.20;;;20.50;72.90;;;19.74;57.93;97332.63;5050885;28;20393;-79
2022/06/06 19:33:25;;;;;;;2.53;1.20;;;20.50;74.70;;;19.73;56.75;97333.72;5052267;28;20492;-79
2022/06/06 19:36:01;;;;;;;1.70;1.27;;;20.40;74.20;;;19.66;57.61;97331.50;5045146;28;20558;-85
2022/06/06 19:38:30;;;;;;;1.85;1.20;;;20.40;74.90;;;19.62;58.63;97335.88;5050697;28;20404;-83
2022/06/06 19:41:00;;;;;;;2.78;1.35;;;20.30;76.10;;;19.60;58.79;97342.69;5049725;28;20441;-86
2022/06/06 19:43:31;;;;;;;2.13;1.30;;;20.30;76.50;;;19.56;57.58;97344.38;5049777;28;20917;-84
2022/06/06 19:46:04;;;;;;;3.17;1.20;;;20.30;76.30;;;19.52;57.36;97338.06;5059888;28;20397;-85
2022/06/06 19:48:41;;;;;;;3.63;1.20;;;20.20;75.00;;;19.47;57.07;97338.22;5056444;28;20431;-79
2022/06/06 19:51:18;;;;;;;1.77;1.20;;;20.20;74.40;;;19.40;57.83;97333.22;5048799;28;20433;-79
2022/06/06 19:53:50;;;;;;;2.07;1.23;;;20.20;75.60;;;19.37;58.78;97343.81;5051882;28;20444;-83
2022/06/06 19:56:23;;;;;;;1.50;1.40;;;20.10;76.80;;;19.31;58.72;97345.84;5051101;28;20415;-84
2022/06/06 19:58:51;;;;;;;1.75;1.10;;;20.00;76.70;;;19.24;61.47;97337.44;5042981;28;20427;-79
2022/06/06 20:01:23;;;;;;;2.60;1.20;;;20.00;80.50;;;19.20;60.41;97342.59;5046108;28;20412;-81
2022/06/06 20:03:57;;;;;;;3.83;1.50;;;19.90;79.60;;;19.15;59.06;97347.31;5049086;28;20409;-80
2022/06/06 20:06:29;;;;;;;2.38;1.20;;;19.90;77.90;;;19.05;58.50;97344.88;5045428;28;20429;-81
2022/06/06 20:09:03;;;;;;;2.50;1.40;;;19.90;77.80;;;18.95;59.72;97335.97;5047083;28;20428;-78
2022/06/06 20:11:43;;;;;;;3.08;1.30;;;19.70;78.90;;;18.87;61.36;97344.75;5050711;28;20394;-77
2022/06/06 20:14:21;;;;;;;2.03;1.33;;;19.70;81.20;;;18.83;61.21;97343.00;5045149;28;20413;-78
2022/06/06 20:16:53;;;;;;;2.33;1.30;;;19.60;81.30;;;18.79;60.79;97339.34;5050045;28;20413;-79
2022/06/06 20:19:23;;;;;;;1.77;1.20;;;19.60;80.90;;;18.72;60.53;97342.44;5049647;28;20412;-80
2022/06/06 20:21:54;;;;;;;2.40;1.17;;;19.50;80.80;;;18.67;60.47;97339.09;5048924;28;20412;-82
2022/06/06 20:24:28;;;;;;;3.17;1.30;;;19.50;80.90;;;18.62;60.73;97348.06;5052222;28;20445;-84
2022/06/06 20:26:56;;;;;;;2.03;1.40;;;19.40;81.50;;;18.60;61.59;97349.44;5034871;28;20495;-81
2022/06/06 20:29:36;;;;;;;3.47;1.75;;;19.40;82.80;;;18.56;61.25;97346.59;5039842;28;20440;-77
2022/06/06 20:32:32;;;;;;;2.25;1.20;;;19.30;82.40;;;18.53;61.43;97347.94;5048937;28;20760;-83
2022/06/06 20:35:28;;;;;;;5.20;1.52;;;19.30;82.80;;;18.51;61.74;97350.13;5047155;28;20411;-79
2022/06/06 20:38:01;;;;;;;4.15;1.40;;;19.30;82.80;;;18.48;62.29;97348.06;5049310;28;20405;-81
2022/06/06 20:40:36;;;;;;;2.22;1.20;;;19.20;84.20;;;18.48;61.85;97345.41;5046775;28;20440;-80
2022/06/06 20:43:15;;;;;;;2.07;1.27;;;19.30;83.80;;;18.48;62.50;97344.59;5046942;28;20410;-82
2022/06/06 20:45:47;;;;;;;1.40;1.30;;;19.20;85.10;;;18.49;62.03;97348.88;5049067;28;20397;-80
2022/06/06 20:48:23;;;;;;;5.28;1.70;;;19.20;84.50;;;18.53;60.33;97352.53;5038608;28;20404;-80
2022/06/06 20:50:53;;;;;;;2.40;1.30;;;19.20;82.50;;;18.51;59.87;97357.38;5045950;28;20416;-87
2022/06/06 20:53:27;;;;;;;2.03;1.38;;;19.30;81.60;;;18.52;58.13;97343.69;5049462;28;20767;-84
2022/06/06 20:55:59;;;;;;;1.98;1.50;;;19.30;79.40;;;18.51;60.44;97349.34;5046282;28;20489;-81
2022/06/06 20:58:26;;;;;;;2.07;1.30;;;19.20;81.60;;;18.53;58.97;97350.63;5045753;28;20476;-78
2022/06/06 21:00:52;;;;;;;1.10;1.00;;;19.30;80.30;;;18.51;59.53;97350.13;5049395;28;20479;-78
2022/06/06 21:03:19;;;;;;;3.17;1.40;;;19.30;80.30;;;18.52;59.55;97348.25;5049741;28;20670;-82
2022/06/06 21:05:49;;;;;;;2.90;1.20;;;19.30;80.30;;;18.52;59.54;97343.69;5046728;28;20432;-79
2022/06/06 21:08:21;;;;;;;2.25;1.40;;;19.30;80.40;;;18.49;59.75;97336.22;5048692;28;20412;-78
2022/06/06 21:10:50;;;;;;;3.67;1.20;;;19.30;80.90;;;18.49;61.16;97336.22;5046318;28;20399;-85
2022/06/06 21:13:21;;;;;;;5.43;1.33;;;19.20;82.60;;;18.48;60.92;97333.88;5050962;28;20747;-82
2022/06/06 21:15:47;;;;;;;4.38;1.60;;;19.20;82.70;;;18.47;61.52;97334.97;5046339;28;20414;-82
2022/06/06 21:18:13;;;;;;;4.45;1.30;;;19.20;83.70;;;18.41;61.51;97328.16;5046201;28;20421;-82
2022/06/06 21:20:43;;;;;;;2.67;1.30;;;19.20;83.80;;;18.38;61.90;97331.41;5050851;28;20403;-87
2022/06/06 21:23:11;;;;;;;2.83;1.30;;;19.10;85.10;;;18.33;61.80;97329.66;5049987;28;20433;-83
2022/06/06 21:25:37;;;;;;;2.92;1.40;;;19.10;84.60;;;18.26;61.70;97333.84;5041215;28;20398;-86
2022/06/06 21:28:04;;;;;;;4.00;1.20;;;19.00;84.50;;;18.22;62.01;97324.81;5050869;28;20430;-82
2022/06/06 21:30:31;;;;;;;3.10;1.60;;;19.00;85.20;;;18.18;61.73;97325.44;5048338;28;20489;-84
2022/06/06 21:32:57;;;;;;;1.75;1.17;;;18.90;85.00;;;18.14;62.51;97323.63;5030380;28;20423;-82